Time;durP1;ratioP1;P1;durP2;ratioP2;P2;SDS_P1;SDS_P2;PMS_P1;PMS_P2;Temp;Humidity;BMP_temperature;BMP_pressure;BME280_temperature;BME280_humidity;BME280_pressure;Samples;Min_cycle;Max_cycle;Signal;HPM_P1;HPM_P2
2024/03/13 00:01:43;;;;;;;52.58;17.58;;;;;;;;;;5112716;22;20045;-72
2024/03/13 00:04:40;;;;;;;49.75;16.77;;;;;;;;;;5074592;28;20058;-72
2024/03/13 00:07:26;;;;;;;57.25;17.45;;;;;;;;;;5074666;28;20537;-72
2024/03/13 00:10:12;;;;;;;48.72;17.42;;;;;;;;;;5062214;28;20051;-72
2024/03/13 00:12:57;;;;;;;50.20;17.77;;;;;;;;;;5090030;28;20558;-70
2024/03/13 00:15:44;;;;;;;45.03;17.23;;;;;;;;;;5094089;28;20089;-72
2024/03/13 00:18:29;;;;;;;56.10;18.00;;;;;;;;;;5084265;28;20093;-72
2024/03/13 00:21:15;;;;;;;49.92;16.35;;;;;;;;;;5093876;28;20085;-72
2024/03/13 00:24:02;;;;;;;44.15;16.63;;;;;;;;;;5095162;28;20082;-72
2024/03/13 00:26:50;;;;;;;49.17;16.23;;;;;;;;;;5094983;28;20020;-72
2024/03/13 00:29:38;;;;;;;51.50;17.88;;;;;;;;;;5093722;28;20478;-72
2024/03/13 00:32:24;;;;;;;50.92;18.20;;;;;;;;;;5093037;28;20489;-72
2024/03/13 00:35:13;;;;;;;48.55;16.08;;;;;;;;;;5094911;28;20397;-72
2024/03/13 00:37:59;;;;;;;41.15;15.88;;;;;;;;;;5093874;28;20440;-72
2024/03/13 00:40:45;;;;;;;51.33;18.75;;;;;;;;;;5093788;28;20020;-72
2024/03/13 00:43:32;;;;;;;47.67;17.58;;;;;;;;;;5094197;28;20028;-72
2024/03/13 00:46:18;;;;;;;48.13;17.67;;;;;;;;;;5093903;28;20039;-72
2024/03/13 00:49:03;;;;;;;52.78;18.42;;;;;;;;;;5095184;28;20122;-72
2024/03/13 00:51:49;;;;;;;55.00;18.92;;;;;;;;;;5092845;28;20371;-72
2024/03/13 00:54:36;;;;;;;53.95;18.10;;;;;;;;;;5094086;28;20378;-72
2024/03/13 00:57:22;;;;;;;61.28;20.33;;;;;;;;;;5094226;28;20107;-72
2024/03/13 01:00:11;;;;;;;59.65;19.45;;;;;;;;;;5094515;28;20058;-72
2024/03/13 01:02:56;;;;;;;57.80;19.13;;;;;;;;;;5108370;28;20047;-72
2024/03/13 01:05:43;;;;;;;59.70;19.75;;;;;;;;;;5114528;28;20026;-72
2024/03/13 01:08:29;;;;;;;53.92;18.10;;;;;;;;;;5113843;28;20042;-72
2024/03/13 01:11:15;;;;;;;58.47;17.15;;;;;;;;;;5113314;28;20101;-72
2024/03/13 01:14:05;;;;;;;52.60;18.75;;;;;;;;;;5114004;28;20024;-72
2024/03/13 01:16:53;;;;;;;53.33;19.98;;;;;;;;;;5099863;28;20054;-72
2024/03/13 01:19:39;;;;;;;51.85;19.00;;;;;;;;;;5098233;28;20024;-72
2024/03/13 01:22:25;;;;;;;58.53;18.70;;;;;;;;;;5113044;28;20374;-72
2024/03/13 01:25:11;;;;;;;60.53;20.63;;;;;;;;;;5098944;28;20028;-72
2024/03/13 01:27:57;;;;;;;52.95;19.33;;;;;;;;;;5113771;28;20093;-72
2024/03/13 01:30:43;;;;;;;60.17;20.17;;;;;;;;;;5098204;28;20111;-72
2024/03/13 01:33:28;;;;;;;57.65;19.75;;;;;;;;;;5113429;28;20016;-72
2024/03/13 01:36:14;;;;;;;60.85;19.98;;;;;;;;;;5114036;28;20053;-72
2024/03/13 01:39:00;;;;;;;60.10;20.00;;;;;;;;;;5098364;28;20026;-72
2024/03/13 01:57:31;;;;;;;63.97;20.50;;;;;;;;;;5113637;28;20480;-72
2024/03/13 02:03:22;;;;;;;59.55;17.50;;;;;;;;;;5101751;28;20019;-72
2024/03/13 02:06:07;;;;;;;57.10;19.30;;;;;;;;;;5097749;28;20026;-72
2024/03/13 02:08:53;;;;;;;65.20;19.42;;;;;;;;;;5112848;28;20032;-72
2024/03/13 02:11:39;;;;;;;61.50;19.95;;;;;;;;;;5098089;28;20015;-72
2024/03/13 02:14:24;;;;;;;56.83;19.88;;;;;;;;;;5112872;28;20085;-72
2024/03/13 02:17:10;;;;;;;55.63;19.40;;;;;;;;;;5098250;28;20020;-72
2024/03/13 02:19:57;;;;;;;61.58;20.40;;;;;;;;;;5083849;28;20062;-72
2024/03/13 02:22:43;;;;;;;59.80;19.35;;;;;;;;;;5084161;28;20030;-72
2024/03/13 02:25:32;;;;;;;56.00;19.20;;;;;;;;;;5098188;28;20023;-72
2024/03/13 02:28:38;;;;;;;57.92;19.45;;;;;;;;;;5098119;28;20463;-72
2024/03/13 02:31:25;;;;;;;55.83;18.00;;;;;;;;;;5098911;28;20398;-72
2024/03/13 02:34:10;;;;;;;52.67;20.02;;;;;;;;;;5097354;28;20051;-72
2024/03/13 02:36:56;;;;;;;50.35;17.52;;;;;;;;;;5099073;28;20047;-72
2024/03/13 02:39:42;;;;;;;47.00;17.67;;;;;;;;;;5097578;28;20046;-72
2024/03/13 02:42:28;;;;;;;53.15;16.50;;;;;;;;;;5097916;28;20481;-72
2024/03/13 02:45:13;;;;;;;47.75;16.33;;;;;;;;;;5097807;28;20040;-72
2024/03/13 02:48:01;;;;;;;48.95;16.63;;;;;;;;;;5098350;28;20030;-72
2024/03/13 02:50:47;;;;;;;46.47;16.40;;;;;;;;;;5097548;28;20047;-72
2024/03/13 02:53:32;;;;;;;46.38;16.15;;;;;;;;;;5113663;28;20565;-72
2024/03/13 02:56:18;;;;;;;80.07;19.25;;;;;;;;;;5113385;28;20019;-72
2024/03/13 02:59:04;;;;;;;76.90;20.65;;;;;;;;;;5099851;28;20074;-72
2024/03/13 03:01:49;;;;;;;42.70;15.80;;;;;;;;;;5098222;28;20089;-72
2024/03/13 03:04:35;;;;;;;60.67;16.08;;;;;;;;;;5112472;28;20024;-72
2024/03/13 03:07:21;;;;;;;55.22;17.27;;;;;;;;;;5115526;28;20028;-72
2024/03/13 03:10:06;;;;;;;71.75;17.15;;;;;;;;;;5102462;28;20111;-72
2024/03/13 03:12:53;;;;;;;76.38;18.02;;;;;;;;;;5101713;28;20019;-72
2024/03/13 03:15:39;;;;;;;92.82;19.73;;;;;;;;;;5116355;28;20019;-72
2024/03/13 03:18:24;;;;;;;122.35;19.38;;;;;;;;;;5116843;28;20392;-72
2024/03/13 03:21:10;;;;;;;92.70;21.15;;;;;;;;;;5115977;28;20023;-72
2024/03/13 03:23:57;;;;;;;62.35;16.73;;;;;;;;;;5101312;28;20464;-72
2024/03/13 03:26:43;;;;;;;69.85;19.02;;;;;;;;;;5101876;28;20027;-72
2024/03/13 03:29:28;;;;;;;61.25;17.85;;;;;;;;;;5102376;28;20027;-72
2024/03/13 03:32:14;;;;;;;53.47;16.52;;;;;;;;;;5115916;28;20042;-72
2024/03/13 03:35:00;;;;;;;72.47;18.45;;;;;;;;;;5115865;28;20024;-72
2024/03/13 03:37:45;;;;;;;39.85;15.75;;;;;;;;;;5116367;28;20020;-72
2024/03/13 03:40:32;;;;;;;53.00;18.63;;;;;;;;;;5101399;28;20489;-72
2024/03/13 03:43:17;;;;;;;45.90;16.52;;;;;;;;;;5102353;28;20024;-72
2024/03/13 03:46:04;;;;;;;41.25;15.10;;;;;;;;;;5116072;28;20035;-72
2024/03/13 03:48:49;;;;;;;49.70;17.20;;;;;;;;;;5115905;28;20503;-72
2024/03/13 03:51:35;;;;;;;60.55;17.17;;;;;;;;;;5115866;28;20037;-72
2024/03/13 03:54:21;;;;;;;51.50;17.35;;;;;;;;;;5101141;28;20024;-72
2024/03/13 03:57:07;;;;;;;50.33;16.75;;;;;;;;;;5115808;28;20059;-72
2024/03/13 03:59:52;;;;;;;43.53;17.83;;;;;;;;;;5115290;28;20442;-72
2024/03/13 04:02:42;;;;;;;48.38;17.67;;;;;;;;;;5101061;28;20113;-72
2024/03/13 04:05:28;;;;;;;42.55;15.93;;;;;;;;;;5115395;28;20457;-72
2024/03/13 04:08:16;;;;;;;43.40;16.15;;;;;;;;;;5100857;28;20500;-72
2024/03/13 04:11:02;;;;;;;48.88;17.67;;;;;;;;;;5115027;28;20031;-72
2024/03/13 04:13:48;;;;;;;50.35;16.42;;;;;;;;;;5115011;28;20116;-72
2024/03/13 04:16:33;;;;;;;53.00;17.27;;;;;;;;;;5100380;28;20023;-72
2024/03/13 04:19:19;;;;;;;52.40;17.63;;;;;;;;;;5114066;28;20086;-72
2024/03/13 04:22:06;;;;;;;53.22;18.33;;;;;;;;;;5099034;28;20019;-72
2024/03/13 04:24:52;;;;;;;51.60;17.98;;;;;;;;;;5106530;28;20027;-72
2024/03/13 04:27:38;;;;;;;54.85;20.23;;;;;;;;;;5114505;28;20058;-73
2024/03/13 04:30:23;;;;;;;57.00;18.80;;;;;;;;;;5114048;28;20438;-72
2024/03/13 04:33:09;;;;;;;56.53;19.80;;;;;;;;;;5100766;28;20019;-72
2024/03/13 04:35:58;;;;;;;63.13;21.77;;;;;;;;;;5114311;28;20027;-72
2024/03/13 04:38:50;;;;;;;65.50;20.75;;;;;;;;;;5114967;28;20129;-72
2024/03/13 04:41:39;;;;;;;75.63;21.70;;;;;;;;;;5115107;28;20023;-72
2024/03/13 04:44:28;;;;;;;70.18;21.67;;;;;;;;;;5114553;28;20035;-72
2024/03/13 04:47:13;;;;;;;78.95;24.60;;;;;;;;;;5086431;28;20028;-72
2024/03/13 04:49:59;;;;;;;68.22;22.55;;;;;;;;;;5114666;28;20023;-72
2024/03/13 04:52:45;;;;;;;69.85;25.65;;;;;;;;;;5114118;28;20056;-72
2024/03/13 04:55:31;;;;;;;77.90;23.45;;;;;;;;;;5114952;28;20050;-72
2024/03/13 04:58:16;;;;;;;71.63;22.73;;;;;;;;;;5099693;28;20016;-72
2024/03/13 05:01:03;;;;;;;80.60;24.52;;;;;;;;;;5114317;28;20107;-72
2024/03/13 05:03:49;;;;;;;79.80;24.40;;;;;;;;;;5087072;28;20073;-72
2024/03/13 05:06:34;;;;;;;68.57;23.15;;;;;;;;;;5114961;28;20027;-72
2024/03/13 05:09:20;;;;;;;74.05;23.10;;;;;;;;;;5099814;28;20027;-72
2024/03/13 05:12:06;;;;;;;67.88;21.25;;;;;;;;;;5099727;28;20019;-72
2024/03/13 05:14:51;;;;;;;76.93;23.80;;;;;;;;;;5114163;28;20028;-72
2024/03/13 05:17:38;;;;;;;80.15;24.00;;;;;;;;;;5113127;28;20019;-72
2024/03/13 05:20:24;;;;;;;76.28;24.52;;;;;;;;;;5114323;28;20589;-72
2024/03/13 05:23:10;;;;;;;83.65;24.55;;;;;;;;;;5118165;22;20052;-68
2024/03/13 05:25:56;;;;;;;78.85;25.20;;;;;;;;;;5091730;28;20062;-67
2024/03/13 05:28:41;;;;;;;78.70;24.35;;;;;;;;;;5091044;28;20508;-67
2024/03/13 05:31:27;;;;;;;69.70;22.48;;;;;;;;;;5091848;28;20433;-68
2024/03/13 05:34:12;;;;;;;79.22;22.70;;;;;;;;;;5072145;28;20028;-68
2024/03/13 05:37:00;;;;;;;75.82;23.67;;;;;;;;;;5071502;28;20020;-68
2024/03/13 05:39:48;;;;;;;70.65;22.98;;;;;;;;;;5071440;28;20031;-68
2024/03/13 05:42:34;;;;;;;73.60;24.65;;;;;;;;;;5057479;28;20013;-68
2024/03/13 05:45:19;;;;;;;77.70;24.30;;;;;;;;;;5072209;28;20090;-68
2024/03/13 05:48:06;;;;;;;63.58;22.58;;;;;;;;;;5071783;28;20470;-68
2024/03/13 05:50:53;;;;;;;70.57;20.77;;;;;;;;;;5071710;28;20485;-68
2024/03/13 05:53:39;;;;;;;71.60;21.92;;;;;;;;;;5057557;28;20017;-68
2024/03/13 05:56:26;;;;;;;78.43;24.23;;;;;;;;;;5072108;28;20021;-68
2024/03/13 05:59:11;;;;;;;75.00;23.52;;;;;;;;;;5057495;28;20031;-67
2024/03/13 06:01:57;;;;;;;64.07;21.70;;;;;;;;;;5071377;28;20021;-68
2024/03/13 06:04:43;;;;;;;71.13;20.63;;;;;;;;;;5072033;28;20443;-68
2024/03/13 06:07:29;;;;;;;74.35;22.00;;;;;;;;;;5071144;28;20056;-68
2024/03/13 06:10:15;;;;;;;64.72;22.92;;;;;;;;;;5071143;28;20482;-68
2024/03/13 06:13:01;;;;;;;67.82;22.13;;;;;;;;;;5071578;28;20090;-67
2024/03/13 06:15:49;;;;;;;63.78;21.25;;;;;;;;;;5071756;28;20482;-67
2024/03/13 06:18:34;;;;;;;62.65;21.70;;;;;;;;;;5071645;28;20445;-68
2024/03/13 06:21:20;;;;;;;65.18;20.67;;;;;;;;;;5072029;28;20074;-68
2024/03/13 06:24:06;;;;;;;71.88;23.38;;;;;;;;;;5071516;28;20029;-68
2024/03/13 06:26:52;;;;;;;65.78;22.08;;;;;;;;;;5071949;28;20029;-68
2024/03/13 06:29:57;;;;;;;80.82;24.52;;;;;;;;;;5071892;28;20482;-67
2024/03/13 06:32:43;;;;;;;76.25;25.42;;;;;;;;;;5071303;28;20028;-68
2024/03/13 06:35:30;;;;;;;67.22;23.13;;;;;;;;;;5072467;28;20024;-67
2024/03/13 06:38:16;;;;;;;70.32;23.42;;;;;;;;;;5071742;28;20028;-68
2024/03/13 06:41:02;;;;;;;64.90;21.35;;;;;;;;;;5072269;28;20031;-66
2024/03/13 06:43:48;;;;;;;72.78;23.20;;;;;;;;;;5037394;28;20120;-68
2024/03/13 06:46:34;;;;;;;76.57;23.38;;;;;;;;;;5035622;28;20109;-68
2024/03/13 06:49:20;;;;;;;75.55;20.95;;;;;;;;;;5035402;28;20080;-68
2024/03/13 06:52:07;;;;;;;83.90;24.00;;;;;;;;;;5036494;28;20060;-68
2024/03/13 06:54:54;;;;;;;78.13;23.40;;;;;;;;;;5035647;28;20021;-67
2024/03/13 06:57:40;;;;;;;78.03;25.75;;;;;;;;;;5022408;28;20099;-68
2024/03/13 07:00:27;;;;;;;80.78;25.45;;;;;;;;;;5035997;28;20084;-68
2024/03/13 07:03:13;;;;;;;76.22;22.90;;;;;;;;;;5035070;28;20021;-68
2024/03/13 07:05:59;;;;;;;83.90;25.80;;;;;;;;;;5036014;28;20026;-68
2024/03/13 07:08:44;;;;;;;76.53;24.55;;;;;;;;;;5034458;28;20514;-68
2024/03/13 07:11:30;;;;;;;84.55;24.75;;;;;;;;;;5045961;28;20078;-67
2024/03/13 07:14:17;;;;;;;78.13;26.10;;;;;;;;;;5073607;28;20378;-67
2024/03/13 07:17:03;;;;;;;82.75;25.05;;;;;;;;;;5074505;28;20020;-68
2024/03/13 07:19:48;;;;;;;81.47;24.88;;;;;;;;;;5075317;28;20052;-68
2024/03/13 07:22:35;;;;;;;75.43;25.17;;;;;;;;;;5074336;28;20525;-68
2024/03/13 07:25:21;;;;;;;87.38;26.02;;;;;;;;;;5074433;28;20098;-68
2024/03/13 07:28:11;;;;;;;87.38;25.50;;;;;;;;;;5074569;28;20017;-68
2024/03/13 07:30:57;;;;;;;76.95;26.08;;;;;;;;;;5073256;28;20091;-68
2024/03/13 07:33:42;;;;;;;88.20;25.50;;;;;;;;;;5066781;28;20452;-68
2024/03/13 07:36:28;;;;;;;86.03;25.60;;;;;;;;;;5075294;28;20078;-68
2024/03/13 07:39:14;;;;;;;79.22;24.58;;;;;;;;;;5075162;28;20020;-68
2024/03/13 07:42:00;;;;;;;75.57;22.25;;;;;;;;;;5073996;28;20486;-68
2024/03/13 07:44:46;;;;;;;79.85;24.48;;;;;;;;;;5075019;28;20060;-69
2024/03/13 07:47:31;;;;;;;75.32;22.95;;;;;;;;;;5074053;28;20024;-68
2024/03/13 07:50:17;;;;;;;78.00;24.20;;;;;;;;;;5074338;28;20560;-68
2024/03/13 07:53:04;;;;;;;74.93;22.30;;;;;;;;;;5073338;28;20029;-68
2024/03/13 07:55:49;;;;;;;76.53;24.52;;;;;;;;;;5073924;28;20048;-68
2024/03/13 07:58:35;;;;;;;67.55;20.85;;;;;;;;;;5059570;28;20073;-68
2024/03/13 08:01:22;;;;;;;72.25;22.60;;;;;;;;;;5075630;28;20111;-68
2024/03/13 08:04:08;;;;;;;64.20;20.80;;;;;;;;;;5059629;28;20032;-68
2024/03/13 08:06:55;;;;;;;68.78;22.58;;;;;;;;;;5073832;28;20083;-68
2024/03/13 08:09:40;;;;;;;64.85;21.90;;;;;;;;;;5073752;28;20025;-68
2024/03/13 08:12:26;;;;;;;62.83;21.05;;;;;;;;;;5074229;28;20055;-68
2024/03/13 08:15:12;;;;;;;61.45;23.58;;;;;;;;;;5073881;28;20028;-68
2024/03/13 08:17:58;;;;;;;73.35;22.60;;;;;;;;;;5069234;28;20090;-68
2024/03/13 08:20:46;;;;;;;59.90;20.23;;;;;;;;;;5060026;28;20508;-68
2024/03/13 08:23:31;;;;;;;65.60;21.48;;;;;;;;;;5072687;28;20063;-68
2024/03/13 08:26:17;;;;;;;65.28;21.88;;;;;;;;;;5074333;28;20089;-68
2024/03/13 08:29:03;;;;;;;70.70;20.95;;;;;;;;;;5060063;28;20020;-69
2024/03/13 08:31:50;;;;;;;61.22;19.80;;;;;;;;;;5075257;28;20035;-68
2024/03/13 08:34:36;;;;;;;69.32;22.00;;;;;;;;;;5074491;28;20028;-68
2024/03/13 08:37:21;;;;;;;64.18;21.40;;;;;;;;;;5059383;28;20029;-69
2024/03/13 08:40:11;;;;;;;60.42;21.58;;;;;;;;;;5073289;28;20020;-68
2024/03/13 08:42:58;;;;;;;62.45;20.85;;;;;;;;;;5072923;28;20020;-68
2024/03/13 08:45:44;;;;;;;60.65;20.13;;;;;;;;;;5075023;28;20032;-68
2024/03/13 08:48:30;;;;;;;56.20;21.85;;;;;;;;;;5073977;28;20029;-68
2024/03/13 08:51:17;;;;;;;56.53;18.33;;;;;;;;;;5073868;28;20498;-69
2024/03/13 08:54:05;;;;;;;57.42;21.33;;;;;;;;;;5058381;28;20478;-68
2024/03/13 08:56:51;;;;;;;54.10;18.70;;;;;;;;;;5073790;28;20082;-68
2024/03/13 08:59:39;;;;;;;52.22;17.23;;;;;;;;;;5058032;28;20056;-69
2024/03/13 09:02:25;;;;;;;62.65;21.27;;;;;;;;;;5072507;28;20099;-68
2024/03/13 09:05:11;;;;;;;54.80;18.83;;;;;;;;;;5072685;28;20036;-68
2024/03/13 09:07:56;;;;;;;59.30;20.67;;;;;;;;;;5058357;28;20035;-68
2024/03/13 09:10:42;;;;;;;56.03;19.33;;;;;;;;;;5057445;28;20478;-68
2024/03/13 09:13:27;;;;;;;52.58;19.42;;;;;;;;;;5072533;28;20436;-69
2024/03/13 09:16:14;;;;;;;50.08;18.77;;;;;;;;;;5073268;28;20099;-69
2024/03/13 09:18:59;;;;;;;47.00;17.13;;;;;;;;;;5073529;28;20048;-69
2024/03/13 09:21:48;;;;;;;50.50;18.80;;;;;;;;;;5072584;28;20027;-69
2024/03/13 09:24:37;;;;;;;44.40;17.95;;;;;;;;;;5073738;28;20025;-69
2024/03/13 09:27:23;;;;;;;54.92;18.35;;;;;;;;;;5058690;28;20028;-69
2024/03/13 09:30:11;;;;;;;50.78;17.05;;;;;;;;;;5072654;28;20016;-69
2024/03/13 09:32:59;;;;;;;48.63;17.63;;;;;;;;;;5072652;28;20567;-69
2024/03/13 09:35:45;;;;;;;47.55;16.98;;;;;;;;;;5072740;28;20130;-69
2024/03/13 09:38:30;;;;;;;43.55;16.48;;;;;;;;;;5072278;28;20042;-69
2024/03/13 09:41:16;;;;;;;43.72;16.88;;;;;;;;;;5072153;28;20078;-69
2024/03/13 09:44:02;;;;;;;46.28;16.45;;;;;;;;;;5035409;28;20112;-68
2024/03/13 09:46:50;;;;;;;44.15;15.50;;;;;;;;;;5041475;28;20053;-69
2024/03/13 09:49:36;;;;;;;44.28;15.93;;;;;;;;;;5053353;28;20489;-70
2024/03/13 09:52:24;;;;;;;41.58;15.27;;;;;;;;;;5070559;28;20099;-70
2024/03/13 09:55:12;;;;;;;44.92;15.13;;;;;;;;;;5057038;28;20486;-68
2024/03/13 09:57:59;;;;;;;41.35;15.07;;;;;;;;;;5071182;28;20039;-68
2024/03/13 10:00:45;;;;;;;42.53;15.30;;;;;;;;;;5057083;28;20070;-69
2024/03/13 10:03:31;;;;;;;42.25;15.85;;;;;;;;;;5071914;28;20033;-69
2024/03/13 10:06:19;;;;;;;37.42;15.70;;;;;;;;;;5071690;28;20035;-69
2024/03/13 10:09:12;;;;;;;42.55;15.38;;;;;;;;;;5056968;28;20066;-69
2024/03/13 10:12:02;;;;;;;36.55;15.13;;;;;;;;;;5058270;28;20090;-68
2024/03/13 10:14:52;;;;;;;45.83;17.13;;;;;;;;;;5056762;28;20099;-69
2024/03/13 10:17:40;;;;;;;44.78;16.30;;;;;;;;;;5070406;28;20020;-69
2024/03/13 10:20:30;;;;;;;39.35;15.40;;;;;;;;;;5056759;28;20027;-69
2024/03/13 10:23:17;;;;;;;37.63;14.90;;;;;;;;;;5055645;28;20122;-68
2024/03/13 10:26:03;;;;;;;37.92;14.43;;;;;;;;;;5071671;28;20032;-69
2024/03/13 10:28:49;;;;;;;40.10;16.10;;;;;;;;;;5056785;28;20013;-69
2024/03/13 10:31:37;;;;;;;37.33;15.60;;;;;;;;;;5056074;28;20024;-69
2024/03/13 10:34:23;;;;;;;40.35;14.63;;;;;;;;;;5071059;28;20031;-69
2024/03/13 10:37:12;;;;;;;31.13;12.02;;;;;;;;;;5056443;28;20024;-69
2024/03/13 10:39:58;;;;;;;36.05;12.32;;;;;;;;;;5072320;28;20102;-69
2024/03/13 10:42:43;;;;;;;28.38;12.68;;;;;;;;;;5070637;28;20035;-68
2024/03/13 10:45:29;;;;;;;30.40;12.27;;;;;;;;;;5071971;28;20405;-68
2024/03/13 10:48:16;;;;;;;37.47;13.80;;;;;;;;;;5071222;28;20021;-69
2024/03/13 10:51:03;;;;;;;35.65;14.10;;;;;;;;;;5056564;28;20103;-69
2024/03/13 10:53:49;;;;;;;32.83;13.10;;;;;;;;;;5055618;28;20024;-69
2024/03/13 10:56:35;;;;;;;36.35;13.77;;;;;;;;;;5072491;28;20461;-68
2024/03/13 10:59:23;;;;;;;35.08;13.95;;;;;;;;;;5071741;28;20029;-69
2024/03/13 11:02:13;;;;;;;40.13;14.55;;;;;;;;;;5056304;28;20028;-68
2024/03/13 11:04:59;;;;;;;37.00;16.95;;;;;;;;;;5056583;28;20036;-68
2024/03/13 11:07:45;;;;;;;37.03;14.68;;;;;;;;;;5072576;28;20052;-68
2024/03/13 11:10:31;;;;;;;40.03;16.17;;;;;;;;;;5072258;28;20024;-70
2024/03/13 11:13:17;;;;;;;30.83;14.52;;;;;;;;;;5070782;28;20504;-69
2024/03/13 11:16:06;;;;;;;31.55;13.85;;;;;;;;;;5070346;28;20036;-69
2024/03/13 11:18:54;;;;;;;33.72;14.73;;;;;;;;;;5056402;28;20028;-68
2024/03/13 11:21:49;;;;;;;35.20;15.48;;;;;;;;;;5055715;28;20016;-69
2024/03/13 11:24:35;;;;;;;38.00;14.85;;;;;;;;;;5155683;23;20059;-71
2024/03/13 11:27:24;;;;;;;33.78;13.80;;;;;;;;;;5091839;28;20031;-71
2024/03/13 11:30:15;;;;;;;33.90;14.10;;;;;;;;;;5094938;28;20035;-72
2024/03/13 11:33:02;;;;;;;32.38;14.32;;;;;;;;;;5078680;28;20370;-71
2024/03/13 11:35:48;;;;;;;26.25;11.77;;;;;;;;;;5066541;28;20059;-71
2024/03/13 11:38:34;;;;;;;33.90;13.00;;;;;;;;;;5080830;28;20512;-71
2024/03/13 11:41:20;;;;;;;26.83;10.88;;;;;;;;;;5080274;28;20032;-71
2024/03/13 11:44:07;;;;;;;30.23;11.75;;;;;;;;;;5094507;28;20028;-71
2024/03/13 11:46:53;;;;;;;26.80;10.68;;;;;;;;;;5080243;28;20440;-71
2024/03/13 11:49:41;;;;;;;26.02;11.52;;;;;;;;;;5085405;28;20028;-71
2024/03/13 11:52:26;;;;;;;27.08;10.75;;;;;;;;;;5075539;28;20020;-71
2024/03/13 11:55:24;;;;;;;26.13;10.98;;;;;;;;;;5073731;28;20017;-71
2024/03/13 11:58:21;;;;;;;29.77;10.82;;;;;;;;;;5060262;28;20055;-71
2024/03/13 12:01:12;;;;;;;29.05;10.55;;;;;;;;;;5073624;28;20375;-71
2024/03/13 12:03:58;;;;;;;24.25;10.43;;;;;;;;;;5073863;28;20033;-71
2024/03/13 12:06:44;;;;;;;29.77;12.00;;;;;;;;;;5061027;28;20398;-72
2024/03/13 12:09:30;;;;;;;30.75;12.38;;;;;;;;;;5094409;28;20565;-72
2024/03/13 12:12:16;;;;;;;25.85;11.25;;;;;;;;;;5078541;28;20028;-71
2024/03/13 12:15:02;;;;;;;28.38;11.27;;;;;;;;;;5065207;28;20110;-71
2024/03/13 12:17:50;;;;;;;29.02;11.18;;;;;;;;;;5092940;28;20027;-71
2024/03/13 12:20:37;;;;;;;31.08;11.68;;;;;;;;;;5077324;28;20024;-72
2024/03/13 12:23:23;;;;;;;32.70;12.57;;;;;;;;;;5044564;28;20405;-71
2024/03/13 12:26:08;;;;;;;33.47;12.02;;;;;;;;;;5074270;28;20469;-71
2024/03/13 12:28:54;;;;;;;31.85;12.00;;;;;;;;;;5074517;28;20033;-71
2024/03/13 12:31:42;;;;;;;32.65;12.27;;;;;;;;;;5061128;28;20020;-71
2024/03/13 12:34:28;;;;;;;34.28;12.90;;;;;;;;;;5057963;28;20496;-71
2024/03/13 12:37:16;;;;;;;31.13;12.23;;;;;;;;;;5072459;28;20042;-71
2024/03/13 12:40:08;;;;;;;40.90;13.43;;;;;;;;;;5094058;28;20027;-72
2024/03/13 12:42:54;;;;;;;35.28;13.18;;;;;;;;;;5066807;28;20107;-71
2024/03/13 12:45:39;;;;;;;36.67;13.45;;;;;;;;;;5094674;28;20222;-71
2024/03/13 12:48:26;;;;;;;35.03;12.90;;;;;;;;;;5094410;28;20019;-71
2024/03/13 12:51:11;;;;;;;36.67;13.38;;;;;;;;;;5093439;28;20540;-71
2024/03/13 12:54:06;;;;;;;37.67;14.00;;;;;;;;;;5078702;28;20024;-71
2024/03/13 12:56:52;;;;;;;29.45;11.00;;;;;;;;;;5095197;28;20428;-71
2024/03/13 12:59:46;;;;;;;34.83;13.20;;;;;;;;;;5093726;28;20017;-71
2024/03/13 13:02:35;;;;;;;33.60;12.95;;;;;;;;;;5081176;28;20016;-71
2024/03/13 13:05:21;;;;;;;36.50;13.73;;;;;;;;;;5094841;28;20020;-71
2024/03/13 13:08:09;;;;;;;35.58;13.52;;;;;;;;;;5079154;28;20489;-71
2024/03/13 13:10:56;;;;;;;36.25;12.65;;;;;;;;;;5078085;28;20040;-71
2024/03/13 13:13:42;;;;;;;33.97;12.80;;;;;;;;;;5079165;28;20046;-71
2024/03/13 13:16:27;;;;;;;31.55;11.20;;;;;;;;;;5093738;28;20481;-71
2024/03/13 13:19:13;;;;;;;32.10;11.15;;;;;;;;;;5093427;28;20120;-71
2024/03/13 13:21:59;;;;;;;32.83;12.27;;;;;;;;;;5054606;28;20104;-71
2024/03/13 13:24:44;;;;;;;24.75;11.43;;;;;;;;;;5069911;28;20020;-71
2024/03/13 13:27:30;;;;;;;29.77;11.90;;;;;;;;;;5105678;28;20019;-71
2024/03/13 13:30:17;;;;;;;26.45;11.70;;;;;;;;;;5114083;28;20051;-71
2024/03/13 13:33:04;;;;;;;32.10;11.73;;;;;;;;;;5098535;28;20023;-71
2024/03/13 13:35:50;;;;;;;30.40;11.30;;;;;;;;;;5098384;28;20031;-71
2024/03/13 13:38:35;;;;;;;29.05;11.38;;;;;;;;;;5093810;28;20020;-71
2024/03/13 13:41:21;;;;;;;21.83;9.45;;;;;;;;;;5091967;28;20397;-71
2024/03/13 13:44:07;;;;;;;23.27;10.48;;;;;;;;;;5073365;28;20032;-71
2024/03/13 13:46:52;;;;;;;27.50;10.13;;;;;;;;;;5058252;28;20016;-71
2024/03/13 13:49:42;;;;;;;23.77;9.30;;;;;;;;;;5100502;28;20020;-71
2024/03/13 13:52:28;;;;;;;25.17;9.80;;;;;;;;;;5097305;28;20020;-71
2024/03/13 13:55:15;;;;;;;26.42;9.02;;;;;;;;;;5085868;28;20405;-71
2024/03/13 13:58:03;;;;;;;25.73;9.73;;;;;;;;;;5099202;28;20031;-72
2024/03/13 14:00:49;;;;;;;23.55;8.60;;;;;;;;;;5088082;28;20028;-71
2024/03/13 14:03:37;;;;;;;21.83;8.40;;;;;;;;;;5081210;28;20432;-72
2024/03/13 14:06:25;;;;;;;25.60;9.73;;;;;;;;;;5080886;28;20021;-70
2024/03/13 14:09:13;;;;;;;22.88;8.82;;;;;;;;;;5076935;28;20473;-71
2024/03/13 14:11:59;;;;;;;23.85;8.75;;;;;;;;;;5078175;28;20020;-71
2024/03/13 14:14:44;;;;;;;21.98;8.13;;;;;;;;;;5081667;28;20028;-71
2024/03/13 14:17:36;;;;;;;19.88;7.80;;;;;;;;;;5090069;28;20389;-70
2024/03/13 14:20:22;;;;;;;19.27;6.90;;;;;;;;;;5078619;28;20028;-69
2024/03/13 14:23:08;;;;;;;19.13;7.60;;;;;;;;;;5088914;28;20037;-69
2024/03/13 14:25:54;;;;;;;16.63;7.28;;;;;;;;;;5082849;28;20063;-69
2024/03/13 14:28:40;;;;;;;18.90;7.93;;;;;;;;;;5081072;28;20114;-69
2024/03/13 14:31:25;;;;;;;17.55;8.27;;;;;;;;;;5075043;28;20035;-69
2024/03/13 14:34:11;;;;;;;17.88;8.10;;;;;;;;;;5078808;28;20031;-69
2024/03/13 14:36:56;;;;;;;19.80;7.78;;;;;;;;;;5085359;28;20485;-68
2024/03/13 14:39:42;;;;;;;21.13;9.52;;;;;;;;;;5081467;28;20120;-68
2024/03/13 14:42:35;;;;;;;18.90;8.55;;;;;;;;;;5065959;28;20024;-68
2024/03/13 14:45:22;;;;;;;22.13;9.95;;;;;;;;;;5075575;28;20518;-68
2024/03/13 14:48:08;;;;;;;21.08;9.27;;;;;;;;;;5080277;28;20056;-68
2024/03/13 14:50:53;;;;;;;22.77;9.80;;;;;;;;;;5081538;28;20051;-68
2024/03/13 14:53:42;;;;;;;23.67;10.43;;;;;;;;;;5081418;28;20536;-67
2024/03/13 14:56:28;;;;;;;30.13;11.43;;;;;;;;;;5080490;28;20046;-68
2024/03/13 14:59:14;;;;;;;33.65;10.93;;;;;;;;;;5084498;28;20075;-68
2024/03/13 15:02:02;;;;;;;34.67;12.73;;;;;;;;;;5075785;28;20020;-69
2024/03/13 15:04:48;;;;;;;28.10;11.68;;;;;;;;;;5084758;28;20489;-69
2024/03/13 15:07:33;;;;;;;30.63;12.32;;;;;;;;;;5081982;28;20029;-69
2024/03/13 15:10:22;;;;;;;29.20;11.25;;;;;;;;;;5081820;28;20094;-69
2024/03/13 15:13:08;;;;;;;27.83;10.75;;;;;;;;;;5087042;28;20095;-69
2024/03/13 15:15:54;;;;;;;30.63;12.13;;;;;;;;;;5086746;28;20028;-69
2024/03/13 15:18:41;;;;;;;31.40;12.90;;;;;;;;;;5066831;28;20032;-69
2024/03/13 15:21:27;;;;;;;29.77;11.73;;;;;;;;;;5084889;28;20074;-69
2024/03/13 15:24:13;;;;;;;31.05;11.15;;;;;;;;;;5064835;28;20433;-69
2024/03/13 15:26:58;;;;;;;32.63;11.85;;;;;;;;;;5079407;28;20035;-69
2024/03/13 15:29:44;;;;;;;36.13;12.70;;;;;;;;;;5084149;28;20029;-69
2024/03/13 15:32:29;;;;;;;30.13;11.48;;;;;;;;;;5080843;28;20048;-69
2024/03/13 15:35:15;;;;;;;36.95;13.50;;;;;;;;;;5087083;28;20031;-71
2024/03/13 15:38:01;;;;;;;32.00;12.68;;;;;;;;;;5084976;28;20028;-70
2024/03/13 15:40:47;;;;;;;41.03;15.13;;;;;;;;;;5084479;28;20051;-71
2024/03/13 15:43:33;;;;;;;41.53;15.20;;;;;;;;;;5075222;28;20124;-71
2024/03/13 15:46:19;;;;;;;36.63;14.73;;;;;;;;;;5077502;28;20035;-70
2024/03/13 15:49:04;;;;;;;38.67;14.07;;;;;;;;;;5079551;28;20506;-71
2024/03/13 15:51:50;;;;;;;37.33;13.63;;;;;;;;;;5084961;28;20028;-70
2024/03/13 15:54:36;;;;;;;38.78;13.25;;;;;;;;;;5084158;28;20025;-70
2024/03/13 15:57:26;;;;;;;36.67;13.02;;;;;;;;;;5082986;28;20027;-71
2024/03/13 16:00:12;;;;;;;30.13;12.00;;;;;;;;;;5084284;28;20411;-71
2024/03/13 16:03:01;;;;;;;28.60;10.90;;;;;;;;;;5086323;28;20011;-71
2024/03/13 16:05:48;;;;;;;33.92;11.68;;;;;;;;;;5088179;28;20081;-71
2024/03/13 16:08:41;;;;;;;28.48;12.07;;;;;;;;;;5101156;28;20035;-71
2024/03/13 16:11:28;;;;;;;27.20;10.70;;;;;;;;;;5100117;28;20019;-71
2024/03/13 16:14:15;;;;;;;32.08;11.95;;;;;;;;;;5112806;28;20026;-71
2024/03/13 16:17:00;;;;;;;28.40;10.85;;;;;;;;;;5113880;28;20541;-70
2024/03/13 16:19:46;;;;;;;30.10;11.90;;;;;;;;;;5116712;27;20160;-71
2024/03/13 16:22:32;;;;;;;36.05;11.63;;;;;;;;;;5087684;28;20058;-71
2024/03/13 16:25:18;;;;;;;29.27;10.75;;;;;;;;;;5115491;28;20094;-71
2024/03/13 16:28:04;;;;;;;30.75;11.23;;;;;;;;;;5114433;28;20473;-71
2024/03/13 16:30:50;;;;;;;23.50;9.73;;;;;;;;;;5101450;28;20039;-71